sensor_id;sensor_type;location;lat;lon;timestamp;temperature;humidity
2489;DHT22;1255;48.716;9.124;2022-08-19T00:00:48;20.50;99.90
2489;DHT22;1255;48.716;9.124;2022-08-19T00:03:17;20.50;99.90
2489;DHT22;1255;48.716;9.124;2022-08-19T00:05:44;20.50;99.90
2489;DHT22;1255;48.716;9.124;2022-08-19T00:08:11;20.50;99.90
2489;DHT22;1255;48.716;9.124;2022-08-19T00:10:37;20.50;99.90
2489;DHT22;1255;48.716;9.124;2022-08-19T00:13:04;20.50;99.90
2489;DHT22;1255;48.716;9.124;2022-08-19T00:15:31;20.50;99.90
2489;DHT22;1255;48.716;9.124;2022-08-19T00:17:58;20.50;99.90
2489;DHT22;1255;48.716;9.124;2022-08-19T00:20:26;20.50;99.90
2489;DHT22;1255;48.716;9.124;2022-08-19T00:22:53;20.50;99.90
2489;DHT22;1255;48.716;9.124;2022-08-19T00:25:20;20.50;99.90
2489;DHT22;1255;48.716;9.124;2022-08-19T00:27:46;20.50;99.90
2489;DHT22;1255;48.716;9.124;2022-08-19T00:30:14;20.50;99.90
2489;DHT22;1255;48.716;9.124;2022-08-19T00:32:40;20.50;99.90
2489;DHT22;1255;48.716;9.124;2022-08-19T00:35:08;20.40;99.90
2489;DHT22;1255;48.716;9.124;2022-08-19T00:37:37;20.40;99.90
2489;DHT22;1255;48.716;9.124;2022-08-19T00:40:07;20.40;99.90
2489;DHT22;1255;48.716;9.124;2022-08-19T00:42:34;20.40;99.90
2489;DHT22;1255;48.716;9.124;2022-08-19T00:45:02;20.40;99.90
2489;DHT22;1255;48.716;9.124;2022-08-19T00:47:28;20.30;99.90
2489;DHT22;1255;48.716;9.124;2022-08-19T00:49:57;20.40;99.90
2489;DHT22;1255;48.716;9.124;2022-08-19T00:52:25;20.30;99.90
2489;DHT22;1255;48.716;9.124;2022-08-19T00:54:56;20.30;99.90
2489;DHT22;1255;48.716;9.124;2022-08-19T00:57:28;20.30;99.90
2489;DHT22;1255;48.716;9.124;2022-08-19T00:59:58;20.30;99.90
2489;DHT22;1255;48.716;9.124;2022-08-19T01:02:26;20.30;99.90
2489;DHT22;1255;48.716;9.124;2022-08-19T01:04:53;20.30;99.90
2489;DHT22;1255;48.716;9.124;2022-08-19T01:07:20;20.30;99.90
2489;DHT22;1255;48.716;9.124;2022-08-19T01:09:47;20.30;99.90
2489;DHT22;1255;48.716;9.124;2022-08-19T01:12:15;20.30;99.90
2489;DHT22;1255;48.716;9.124;2022-08-19T01:14:43;20.30;99.90
2489;DHT22;1255;48.716;9.124;2022-08-19T01:17:11;20.30;99.90
2489;DHT22;1255;48.716;9.124;2022-08-19T01:19:40;20.30;99.90
2489;DHT22;1255;48.716;9.124;2022-08-19T01:22:11;20.20;99.90
2489;DHT22;1255;48.716;9.124;2022-08-19T01:24:40;20.20;99.90
2489;DHT22;1255;48.716;9.124;2022-08-19T01:27:08;20.20;99.90
2489;DHT22;1255;48.716;9.124;2022-08-19T01:29:39;20.20;99.90
2489;DHT22;1255;48.716;9.124;2022-08-19T01:32:07;20.20;99.90
2489;DHT22;1255;48.716;9.124;2022-08-19T01:34:34;20.20;99.90
2489;DHT22;1255;48.716;9.124;2022-08-19T01:37:06;20.10;99.90
2489;DHT22;1255;48.716;9.124;2022-08-19T01:39:36;20.10;99.90
2489;DHT22;1255;48.716;9.124;2022-08-19T01:42:05;20.10;99.90
2489;DHT22;1255;48.716;9.124;2022-08-19T01:44:34;20.10;99.90
2489;DHT22;1255;48.716;9.124;2022-08-19T01:47:02;20.00;99.90
2489;DHT22;1255;48.716;9.124;2022-08-19T01:49:30;20.00;99.90
2489;DHT22;1255;48.716;9.124;2022-08-19T01:51:56;20.00;99.90
2489;DHT22;1255;48.716;9.124;2022-08-19T01:54:25;20.00;99.90
2489;DHT22;1255;48.716;9.124;2022-08-19T01:56:53;19.90;99.90
2489;DHT22;1255;48.716;9.124;2022-08-19T01:59:23;19.90;99.90
2489;DHT22;1255;48.716;9.124;2022-08-19T02:01:50;19.90;99.90
2489;DHT22;1255;48.716;9.124;2022-08-19T02:04:17;19.90;99.90
2489;DHT22;1255;48.716;9.124;2022-08-19T02:06:43;19.90;99.90
2489;DHT22;1255;48.716;9.124;2022-08-19T02:09:10;19.90;99.90
2489;DHT22;1255;48.716;9.124;2022-08-19T02:11:37;19.80;99.90
2489;DHT22;1255;48.716;9.124;2022-08-19T02:14:06;19.90;99.90
2489;DHT22;1255;48.716;9.124;2022-08-19T02:16:35;19.90;99.90
2489;DHT22;1255;48.716;9.124;2022-08-19T02:19:04;19.90;99.90
2489;DHT22;1255;48.716;9.124;2022-08-19T02:21:31;19.90;99.90
2489;DHT22;1255;48.716;9.124;2022-08-19T02:23:58;19.90;99.90
2489;DHT22;1255;48.716;9.124;2022-08-19T02:26:25;19.80;99.90
2489;DHT22;1255;48.716;9.124;2022-08-19T02:28:53;19.80;99.90
2489;DHT22;1255;48.716;9.124;2022-08-19T02:31:21;19.80;99.90
2489;DHT22;1255;48.716;9.124;2022-08-19T02:33:49;19.80;99.90
2489;DHT22;1255;48.716;9.124;2022-08-19T02:36:18;19.80;99.90
2489;DHT22;1255;48.716;9.124;2022-08-19T02:38:45;19.80;99.90
2489;DHT22;1255;48.716;9.124;2022-08-19T02:41:14;19.80;99.90
2489;DHT22;1255;48.716;9.124;2022-08-19T02:43:41;19.90;99.90
2489;DHT22;1255;48.716;9.124;2022-08-19T02:46:12;19.80;99.90
2489;DHT22;1255;48.716;9.124;2022-08-19T02:48:39;19.80;99.90
2489;DHT22;1255;48.716;9.124;2022-08-19T02:51:08;19.80;99.90
2489;DHT22;1255;48.716;9.124;2022-08-19T02:53:34;19.80;99.90
2489;DHT22;1255;48.716;9.124;2022-08-19T02:56:06;19.80;99.90
2489;DHT22;1255;48.716;9.124;2022-08-19T02:58:33;19.80;99.90
2489;DHT22;1255;48.716;9.124;2022-08-19T03:00:59;19.80;99.90
2489;DHT22;1255;48.716;9.124;2022-08-19T03:03:26;19.70;99.90
2489;DHT22;1255;48.716;9.124;2022-08-19T03:06:04;19.70;99.90
2489;DHT22;1255;48.716;9.124;2022-08-19T03:08:32;19.70;99.90
2489;DHT22;1255;48.716;9.124;2022-08-19T03:10:59;19.70;99.90
2489;DHT22;1255;48.716;9.124;2022-08-19T03:13:25;19.70;99.90
2489;DHT22;1255;48.716;9.124;2022-08-19T03:15:53;19.60;99.90
2489;DHT22;1255;48.716;9.124;2022-08-19T03:18:20;19.60;99.90
2489;DHT22;1255;48.716;9.124;2022-08-19T03:20:49;19.60;99.90
2489;DHT22;1255;48.716;9.124;2022-08-19T03:23:16;19.60;99.90
2489;DHT22;1255;48.716;9.124;2022-08-19T03:25:47;19.60;99.90
2489;DHT22;1255;48.716;9.124;2022-08-19T03:28:15;19.60;99.90
2489;DHT22;1255;48.716;9.124;2022-08-19T03:30:54;19.60;99.90
2489;DHT22;1255;48.716;9.124;2022-08-19T03:33:22;19.60;99.90
2489;DHT22;1255;48.716;9.124;2022-08-19T03:36:00;19.60;99.90
2489;DHT22;1255;48.716;9.124;2022-08-19T03:38:26;19.60;99.90
2489;DHT22;1255;48.716;9.124;2022-08-19T03:40:55;19.60;99.90
2489;DHT22;1255;48.716;9.124;2022-08-19T03:43:22;19.60;99.90
2489;DHT22;1255;48.716;9.124;2022-08-19T03:46:00;19.60;99.90
2489;DHT22;1255;48.716;9.124;2022-08-19T03:48:33;19.60;99.90
2489;DHT22;1255;48.716;9.124;2022-08-19T03:51:01;19.60;99.90
2489;DHT22;1255;48.716;9.124;2022-08-19T03:53:29;19.50;99.90
2489;DHT22;1255;48.716;9.124;2022-08-19T03:55:58;19.50;99.90
2489;DHT22;1255;48.716;9.124;2022-08-19T03:58:26;19.50;99.90
2489;DHT22;1255;48.716;9.124;2022-08-19T04:00:54;19.60;99.90
2489;DHT22;1255;48.716;9.124;2022-08-19T04:03:22;19.50;99.90
2489;DHT22;1255;48.716;9.124;2022-08-19T04:05:49;19.50;99.90
2489;DHT22;1255;48.716;9.124;2022-08-19T04:08:17;19.50;99.90
2489;DHT22;1255;48.716;9.124;2022-08-19T04:10:46;19.50;99.90
2489;DHT22;1255;48.716;9.124;2022-08-19T04:13:15;19.50;99.90
2489;DHT22;1255;48.716;9.124;2022-08-19T04:15:44;19.50;99.90
2489;DHT22;1255;48.716;9.124;2022-08-19T04:18:12;19.50;99.90
2489;DHT22;1255;48.716;9.124;2022-08-19T04:20:44;19.50;99.90
2489;DHT22;1255;48.716;9.124;2022-08-19T04:23:12;19.50;99.90
2489;DHT22;1255;48.716;9.124;2022-08-19T04:25:42;19.50;99.90
2489;DHT22;1255;48.716;9.124;2022-08-19T04:28:25;19.50;99.90
2489;DHT22;1255;48.716;9.124;2022-08-19T04:30:58;19.50;99.90
2489;DHT22;1255;48.716;9.124;2022-08-19T04:33:27;19.50;99.90
2489;DHT22;1255;48.716;9.124;2022-08-19T04:35:56;19.40;99.90
2489;DHT22;1255;48.716;9.124;2022-08-19T04:38:27;19.40;99.90
2489;DHT22;1255;48.716;9.124;2022-08-19T04:41:07;19.40;99.90
2489;DHT22;1255;48.716;9.124;2022-08-19T04:44:06;19.40;99.90
2489;DHT22;1255;48.716;9.124;2022-08-19T04:46:44;19.40;99.90
2489;DHT22;1255;48.716;9.124;2022-08-19T04:49:23;19.40;99.90
2489;DHT22;1255;48.716;9.124;2022-08-19T04:52:02;19.50;99.90
2489;DHT22;1255;48.716;9.124;2022-08-19T04:54:52;19.40;99.90
2489;DHT22;1255;48.716;9.124;2022-08-19T04:57:49;19.40;99.90
2489;DHT22;1255;48.716;9.124;2022-08-19T05:00:39;19.40;99.90
2489;DHT22;1255;48.716;9.124;2022-08-19T05:03:07;19.40;99.90
2489;DHT22;1255;48.716;9.124;2022-08-19T05:05:38;19.40;99.90
2489;DHT22;1255;48.716;9.124;2022-08-19T05:08:05;19.40;99.90
2489;DHT22;1255;48.716;9.124;2022-08-19T05:10:34;19.40;99.90
2489;DHT22;1255;48.716;9.124;2022-08-19T05:13:02;19.40;99.90
2489;DHT22;1255;48.716;9.124;2022-08-19T05:15:29;19.40;99.90
2489;DHT22;1255;48.716;9.124;2022-08-19T05:17:57;19.40;99.90
2489;DHT22;1255;48.716;9.124;2022-08-19T05:20:44;19.30;99.90
2489;DHT22;1255;48.716;9.124;2022-08-19T05:23:28;19.30;99.90
2489;DHT22;1255;48.716;9.124;2022-08-19T05:25:55;19.40;99.90
2489;DHT22;1255;48.716;9.124;2022-08-19T05:28:22;19.40;99.90
2489;DHT22;1255;48.716;9.124;2022-08-19T05:30:48;19.40;99.90
2489;DHT22;1255;48.716;9.124;2022-08-19T05:33:17;19.40;99.90
2489;DHT22;1255;48.716;9.124;2022-08-19T05:35:44;19.40;99.90
2489;DHT22;1255;48.716;9.124;2022-08-19T05:38:11;19.40;99.90
2489;DHT22;1255;48.716;9.124;2022-08-19T05:40:38;19.30;99.90
2489;DHT22;1255;48.716;9.124;2022-08-19T05:43:06;19.30;99.90
2489;DHT22;1255;48.716;9.124;2022-08-19T05:45:38;19.30;99.90
2489;DHT22;1255;48.716;9.124;2022-08-19T05:48:05;19.30;99.90
2489;DHT22;1255;48.716;9.124;2022-08-19T05:50:35;19.30;99.90
2489;DHT22;1255;48.716;9.124;2022-08-19T05:53:02;19.30;99.90
2489;DHT22;1255;48.716;9.124;2022-08-19T05:55:29;19.30;99.90
2489;DHT22;1255;48.716;9.124;2022-08-19T05:57:55;19.30;99.90
2489;DHT22;1255;48.716;9.124;2022-08-19T06:00:22;19.30;99.90
2489;DHT22;1255;48.716;9.124;2022-08-19T06:02:49;19.30;99.90
2489;DHT22;1255;48.716;9.124;2022-08-19T06:05:17;19.30;99.90
2489;DHT22;1255;48.716;9.124;2022-08-19T06:07:46;19.30;99.90
2489;DHT22;1255;48.716;9.124;2022-08-19T06:10:13;19.30;99.90
2489;DHT22;1255;48.716;9.124;2022-08-19T06:12:40;19.30;99.90
2489;DHT22;1255;48.716;9.124;2022-08-19T06:15:09;19.30;99.90
2489;DHT22;1255;48.716;9.124;2022-08-19T06:17:36;19.30;99.90
2489;DHT22;1255;48.716;9.124;2022-08-19T06:20:05;19.30;99.90
2489;DHT22;1255;48.716;9.124;2022-08-19T06:22:37;19.30;99.90
2489;DHT22;1255;48.716;9.124;2022-08-19T06:25:06;19.30;99.90
2489;DHT22;1255;48.716;9.124;2022-08-19T06:27:35;19.30;99.90
2489;DHT22;1255;48.716;9.124;2022-08-19T06:30:03;19.30;99.90
2489;DHT22;1255;48.716;9.124;2022-08-19T06:32:30;19.30;99.90
2489;DHT22;1255;48.716;9.124;2022-08-19T06:34:57;19.30;99.90
2489;DHT22;1255;48.716;9.124;2022-08-19T06:37:24;19.30;99.90
2489;DHT22;1255;48.716;9.124;2022-08-19T06:39:50;19.30;99.90
2489;DHT22;1255;48.716;9.124;2022-08-19T06:42:18;19.40;99.90
2489;DHT22;1255;48.716;9.124;2022-08-19T06:44:47;19.40;99.90
2489;DHT22;1255;48.716;9.124;2022-08-19T06:47:18;19.40;99.90
2489;DHT22;1255;48.716;9.124;2022-08-19T06:49:45;19.40;99.90
2489;DHT22;1255;48.716;9.124;2022-08-19T06:52:12;19.40;99.90
2489;DHT22;1255;48.716;9.124;2022-08-19T06:54:40;19.40;99.90
2489;DHT22;1255;48.716;9.124;2022-08-19T06:57:07;19.40;99.90
2489;DHT22;1255;48.716;9.124;2022-08-19T06:59:40;19.40;99.90
2489;DHT22;1255;48.716;9.124;2022-08-19T07:02:07;19.40;99.90
2489;DHT22;1255;48.716;9.124;2022-08-19T07:04:35;19.40;99.90
2489;DHT22;1255;48.716;9.124;2022-08-19T07:07:05;19.40;99.90
2489;DHT22;1255;48.716;9.124;2022-08-19T07:09:34;19.40;99.90
2489;DHT22;1255;48.716;9.124;2022-08-19T07:12:04;19.40;99.90
2489;DHT22;1255;48.716;9.124;2022-08-19T07:14:33;19.40;99.90
2489;DHT22;1255;48.716;9.124;2022-08-19T07:17:06;19.40;99.90
2489;DHT22;1255;48.716;9.124;2022-08-19T07:19:34;19.30;99.90
2489;DHT22;1255;48.716;9.124;2022-08-19T07:22:02;19.30;99.90
2489;DHT22;1255;48.716;9.124;2022-08-19T07:24:30;19.20;99.90
2489;DHT22;1255;48.716;9.124;2022-08-19T07:26:58;19.20;99.90
2489;DHT22;1255;48.716;9.124;2022-08-19T07:29:28;19.20;99.90
2489;DHT22;1255;48.716;9.124;2022-08-19T07:31:56;19.20;99.90
2489;DHT22;1255;48.716;9.124;2022-08-19T07:34:26;19.20;99.90
2489;DHT22;1255;48.716;9.124;2022-08-19T07:36:53;19.20;99.90
2489;DHT22;1255;48.716;9.124;2022-08-19T07:39:24;19.20;99.90
2489;DHT22;1255;48.716;9.124;2022-08-19T07:41:51;19.20;99.90
2489;DHT22;1255;48.716;9.124;2022-08-19T07:44:19;19.20;99.90
2489;DHT22;1255;48.716;9.124;2022-08-19T07:46:48;19.20;99.90
2489;DHT22;1255;48.716;9.124;2022-08-19T07:49:16;19.20;99.90
2489;DHT22;1255;48.716;9.124;2022-08-19T07:51:46;19.20;99.90
2489;DHT22;1255;48.716;9.124;2022-08-19T07:54:13;19.20;99.90
2489;DHT22;1255;48.716;9.124;2022-08-19T07:56:40;19.20;99.90
2489;DHT22;1255;48.716;9.124;2022-08-19T07:59:07;19.20;99.90
2489;DHT22;1255;48.716;9.124;2022-08-19T08:01:34;19.20;99.90
2489;DHT22;1255;48.716;9.124;2022-08-19T08:04:01;19.20;99.90
2489;DHT22;1255;48.716;9.124;2022-08-19T08:06:47;19.20;99.90
2489;DHT22;1255;48.716;9.124;2022-08-19T08:09:35;19.30;99.90
2489;DHT22;1255;48.716;9.124;2022-08-19T08:12:04;19.30;99.90
2489;DHT22;1255;48.716;9.124;2022-08-19T08:14:34;19.40;99.90
2489;DHT22;1255;48.716;9.124;2022-08-19T08:17:03;19.40;99.90
2489;DHT22;1255;48.716;9.124;2022-08-19T08:19:30;19.40;99.90
2489;DHT22;1255;48.716;9.124;2022-08-19T08:22:00;19.40;99.90
2489;DHT22;1255;48.716;9.124;2022-08-19T08:24:29;19.40;99.90
2489;DHT22;1255;48.716;9.124;2022-08-19T08:26:58;19.40;99.90
2489;DHT22;1255;48.716;9.124;2022-08-19T08:29:28;19.30;99.90
2489;DHT22;1255;48.716;9.124;2022-08-19T08:31:56;19.40;99.90
2489;DHT22;1255;48.716;9.124;2022-08-19T08:34:23;19.30;99.90
2489;DHT22;1255;48.716;9.124;2022-08-19T08:36:50;19.30;99.90
2489;DHT22;1255;48.716;9.124;2022-08-19T08:39:20;19.30;99.90
2489;DHT22;1255;48.716;9.124;2022-08-19T08:41:51;19.30;99.90
2489;DHT22;1255;48.716;9.124;2022-08-19T08:44:22;19.30;99.90
2489;DHT22;1255;48.716;9.124;2022-08-19T08:46:53;19.30;99.90
2489;DHT22;1255;48.716;9.124;2022-08-19T08:49:29;19.40;99.90
2489;DHT22;1255;48.716;9.124;2022-08-19T08:52:02;19.40;99.90
2489;DHT22;1255;48.716;9.124;2022-08-19T08:54:34;19.40;99.90
2489;DHT22;1255;48.716;9.124;2022-08-19T08:57:04;19.40;99.90
2489;DHT22;1255;48.716;9.124;2022-08-19T08:59:36;19.40;99.90
2489;DHT22;1255;48.716;9.124;2022-08-19T09:02:04;19.40;99.90
2489;DHT22;1255;48.716;9.124;2022-08-19T09:04:30;19.40;99.90
2489;DHT22;1255;48.716;9.124;2022-08-19T09:07:13;19.40;99.90
2489;DHT22;1255;48.716;9.124;2022-08-19T09:09:49;19.40;99.90
2489;DHT22;1255;48.716;9.124;2022-08-19T09:12:22;19.40;99.90
2489;DHT22;1255;48.716;9.124;2022-08-19T09:14:53;19.50;99.90
2489;DHT22;1255;48.716;9.124;2022-08-19T09:17:24;19.50;99.90
2489;DHT22;1255;48.716;9.124;2022-08-19T09:19:55;19.50;99.90
2489;DHT22;1255;48.716;9.124;2022-08-19T09:22:22;19.50;99.90
2489;DHT22;1255;48.716;9.124;2022-08-19T09:24:51;19.50;99.90
2489;DHT22;1255;48.716;9.124;2022-08-19T09:27:18;19.50;99.90
2489;DHT22;1255;48.716;9.124;2022-08-19T09:29:46;19.50;99.90
2489;DHT22;1255;48.716;9.124;2022-08-19T09:32:14;19.60;99.90
2489;DHT22;1255;48.716;9.124;2022-08-19T09:34:40;19.60;99.90
2489;DHT22;1255;48.716;9.124;2022-08-19T09:37:09;19.60;99.90
2489;DHT22;1255;48.716;9.124;2022-08-19T09:39:35;19.60;99.90
2489;DHT22;1255;48.716;9.124;2022-08-19T09:42:05;19.60;99.90
2489;DHT22;1255;48.716;9.124;2022-08-19T09:44:35;19.60;99.90
2489;DHT22;1255;48.716;9.124;2022-08-19T09:47:02;19.60;99.90
2489;DHT22;1255;48.716;9.124;2022-08-19T09:49:30;19.60;99.90
2489;DHT22;1255;48.716;9.124;2022-08-19T09:51:56;19.60;99.90
2489;DHT22;1255;48.716;9.124;2022-08-19T09:54:24;19.70;99.90
2489;DHT22;1255;48.716;9.124;2022-08-19T09:56:51;19.70;99.90
2489;DHT22;1255;48.716;9.124;2022-08-19T09:59:19;19.80;99.90
2489;DHT22;1255;48.716;9.124;2022-08-19T10:01:46;19.80;99.90
2489;DHT22;1255;48.716;9.124;2022-08-19T10:04:13;19.90;99.90
2489;DHT22;1255;48.716;9.124;2022-08-19T10:06:40;19.90;99.90
2489;DHT22;1255;48.716;9.124;2022-08-19T10:09:08;19.90;99.90
2489;DHT22;1255;48.716;9.124;2022-08-19T10:11:39;19.90;99.90
2489;DHT22;1255;48.716;9.124;2022-08-19T10:14:06;19.90;99.90
2489;DHT22;1255;48.716;9.124;2022-08-19T10:16:36;20.00;99.90
2489;DHT22;1255;48.716;9.124;2022-08-19T10:19:04;20.00;99.90
2489;DHT22;1255;48.716;9.124;2022-08-19T10:21:32;20.00;99.90
2489;DHT22;1255;48.716;9.124;2022-08-19T10:24:01;20.00;99.90
2489;DHT22;1255;48.716;9.124;2022-08-19T10:26:32;20.00;99.90
2489;DHT22;1255;48.716;9.124;2022-08-19T10:29:00;20.10;99.90
2489;DHT22;1255;48.716;9.124;2022-08-19T10:31:28;20.10;99.90
2489;DHT22;1255;48.716;9.124;2022-08-19T10:33:58;20.10;99.90
2489;DHT22;1255;48.716;9.124;2022-08-19T10:36:26;20.20;99.90
2489;DHT22;1255;48.716;9.124;2022-08-19T10:38:55;20.20;99.90
2489;DHT22;1255;48.716;9.124;2022-08-19T10:41:25;20.20;99.90
2489;DHT22;1255;48.716;9.124;2022-08-19T10:43:53;20.30;99.90
2489;DHT22;1255;48.716;9.124;2022-08-19T10:46:21;20.30;99.90
2489;DHT22;1255;48.716;9.124;2022-08-19T10:48:49;20.30;99.90
2489;DHT22;1255;48.716;9.124;2022-08-19T10:51:17;20.30;99.90
2489;DHT22;1255;48.716;9.124;2022-08-19T10:54:02;20.40;99.90
2489;DHT22;1255;48.716;9.124;2022-08-19T10:56:30;20.40;99.90
2489;DHT22;1255;48.716;9.124;2022-08-19T10:59:11;20.40;99.90
2489;DHT22;1255;48.716;9.124;2022-08-19T11:01:39;20.30;99.90
2489;DHT22;1255;48.716;9.124;2022-08-19T11:04:06;20.40;99.90
2489;DHT22;1255;48.716;9.124;2022-08-19T11:06:37;20.40;99.90
2489;DHT22;1255;48.716;9.124;2022-08-19T11:09:06;20.40;99.90
2489;DHT22;1255;48.716;9.124;2022-08-19T11:11:34;20.40;99.90
2489;DHT22;1255;48.716;9.124;2022-08-19T11:14:04;20.40;99.90
2489;DHT22;1255;48.716;9.124;2022-08-19T11:16:31;20.50;99.90
2489;DHT22;1255;48.716;9.124;2022-08-19T11:18:59;20.50;99.90
2489;DHT22;1255;48.716;9.124;2022-08-19T11:21:29;20.50;99.90
2489;DHT22;1255;48.716;9.124;2022-08-19T11:24:00;20.50;99.90
2489;DHT22;1255;48.716;9.124;2022-08-19T11:26:27;20.60;99.90
2489;DHT22;1255;48.716;9.124;2022-08-19T11:28:55;20.60;99.90
2489;DHT22;1255;48.716;9.124;2022-08-19T11:31:25;20.70;99.90
2489;DHT22;1255;48.716;9.124;2022-08-19T11:33:52;20.70;99.90
2489;DHT22;1255;48.716;9.124;2022-08-19T11:36:20;20.80;99.90
2489;DHT22;1255;48.716;9.124;2022-08-19T11:38:48;20.80;99.90
2489;DHT22;1255;48.716;9.124;2022-08-19T11:41:18;20.80;99.90
2489;DHT22;1255;48.716;9.124;2022-08-19T11:43:45;20.80;99.90
2489;DHT22;1255;48.716;9.124;2022-08-19T11:46:14;20.90;99.90
2489;DHT22;1255;48.716;9.124;2022-08-19T11:48:41;20.90;99.90
2489;DHT22;1255;48.716;9.124;2022-08-19T11:51:10;20.90;99.90
2489;DHT22;1255;48.716;9.124;2022-08-19T11:53:38;21.00;99.90
2489;DHT22;1255;48.716;9.124;2022-08-19T11:56:06;20.90;99.90
2489;DHT22;1255;48.716;9.124;2022-08-19T11:58:35;21.00;99.90
2489;DHT22;1255;48.716;9.124;2022-08-19T12:01:05;21.00;99.90
2489;DHT22;1255;48.716;9.124;2022-08-19T12:03:32;21.00;99.90
2489;DHT22;1255;48.716;9.124;2022-08-19T12:06:02;21.10;99.90
2489;DHT22;1255;48.716;9.124;2022-08-19T12:08:29;21.10;99.90
2489;DHT22;1255;48.716;9.124;2022-08-19T12:10:56;21.20;99.90
2489;DHT22;1255;48.716;9.124;2022-08-19T12:13:23;21.30;99.90
2489;DHT22;1255;48.716;9.124;2022-08-19T12:15:51;21.40;99.90
2489;DHT22;1255;48.716;9.124;2022-08-19T12:18:18;21.50;99.90
2489;DHT22;1255;48.716;9.124;2022-08-19T12:20:45;21.50;99.90
2489;DHT22;1255;48.716;9.124;2022-08-19T12:23:13;21.60;99.90
2489;DHT22;1255;48.716;9.124;2022-08-19T12:25:44;21.60;99.90
2489;DHT22;1255;48.716;9.124;2022-08-19T12:28:15;21.60;99.90
2489;DHT22;1255;48.716;9.124;2022-08-19T12:30:42;21.60;99.90
2489;DHT22;1255;48.716;9.124;2022-08-19T12:33:10;21.60;99.90
2489;DHT22;1255;48.716;9.124;2022-08-19T12:35:40;21.50;99.90
2489;DHT22;1255;48.716;9.124;2022-08-19T12:38:07;21.50;99.90
2489;DHT22;1255;48.716;9.124;2022-08-19T12:40:34;21.50;99.90
2489;DHT22;1255;48.716;9.124;2022-08-19T12:43:01;21.50;99.90
2489;DHT22;1255;48.716;9.124;2022-08-19T12:45:27;21.50;99.90
2489;DHT22;1255;48.716;9.124;2022-08-19T12:47:54;21.50;99.90
2489;DHT22;1255;48.716;9.124;2022-08-19T12:50:23;21.50;99.90
2489;DHT22;1255;48.716;9.124;2022-08-19T12:52:50;21.60;99.90
2489;DHT22;1255;48.716;9.124;2022-08-19T12:55:18;21.50;99.90
2489;DHT22;1255;48.716;9.124;2022-08-19T12:57:45;21.50;99.90
2489;DHT22;1255;48.716;9.124;2022-08-19T13:00:15;21.50;99.90
2489;DHT22;1255;48.716;9.124;2022-08-19T13:02:45;21.50;99.90
2489;DHT22;1255;48.716;9.124;2022-08-19T13:05:14;21.50;99.90
2489;DHT22;1255;48.716;9.124;2022-08-19T13:07:43;21.50;99.90
2489;DHT22;1255;48.716;9.124;2022-08-19T13:10:12;21.40;99.90
2489;DHT22;1255;48.716;9.124;2022-08-19T13:12:41;21.30;99.90
2489;DHT22;1255;48.716;9.124;2022-08-19T13:15:09;21.30;99.90
2489;DHT22;1255;48.716;9.124;2022-08-19T13:17:37;21.30;99.90
2489;DHT22;1255;48.716;9.124;2022-08-19T13:20:04;21.20;99.90
2489;DHT22;1255;48.716;9.124;2022-08-19T13:22:32;21.20;99.90
2489;DHT22;1255;48.716;9.124;2022-08-19T13:25:03;21.20;99.90
2489;DHT22;1255;48.716;9.124;2022-08-19T13:27:31;21.20;99.90
2489;DHT22;1255;48.716;9.124;2022-08-19T13:29:57;21.20;99.90
2489;DHT22;1255;48.716;9.124;2022-08-19T13:32:42;21.30;99.90
2489;DHT22;1255;48.716;9.124;2022-08-19T13:35:26;21.20;99.90
2489;DHT22;1255;48.716;9.124;2022-08-19T13:37:53;21.20;99.90
2489;DHT22;1255;48.716;9.124;2022-08-19T13:40:23;21.20;99.90
2489;DHT22;1255;48.716;9.124;2022-08-19T13:42:53;21.20;99.90
2489;DHT22;1255;48.716;9.124;2022-08-19T13:45:22;21.10;99.90
2489;DHT22;1255;48.716;9.124;2022-08-19T13:47:52;21.10;99.90
2489;DHT22;1255;48.716;9.124;2022-08-19T13:50:22;21.10;99.90
2489;DHT22;1255;48.716;9.124;2022-08-19T13:52:51;21.10;99.90
2489;DHT22;1255;48.716;9.124;2022-08-19T13:55:18;21.10;99.90
2489;DHT22;1255;48.716;9.124;2022-08-19T13:57:50;21.10;99.90
2489;DHT22;1255;48.716;9.124;2022-08-19T14:00:18;21.00;99.90
2489;DHT22;1255;48.716;9.124;2022-08-19T14:02:46;20.90;99.90
2489;DHT22;1255;48.716;9.124;2022-08-19T14:05:15;20.80;99.90
2489;DHT22;1255;48.716;9.124;2022-08-19T14:07:42;20.80;99.90
2489;DHT22;1255;48.716;9.124;2022-08-19T14:10:12;20.70;99.90
2489;DHT22;1255;48.716;9.124;2022-08-19T14:12:40;20.70;99.90
2489;DHT22;1255;48.716;9.124;2022-08-19T14:15:10;20.70;99.90
2489;DHT22;1255;48.716;9.124;2022-08-19T14:17:37;20.60;99.90
2489;DHT22;1255;48.716;9.124;2022-08-19T14:20:06;20.50;99.90
2489;DHT22;1255;48.716;9.124;2022-08-19T14:22:35;20.40;99.90
2489;DHT22;1255;48.716;9.124;2022-08-19T14:25:02;20.40;99.90
2489;DHT22;1255;48.716;9.124;2022-08-19T14:27:32;20.30;99.90
2489;DHT22;1255;48.716;9.124;2022-08-19T14:29:58;20.30;99.90
2489;DHT22;1255;48.716;9.124;2022-08-19T14:32:26;20.20;99.90
2489;DHT22;1255;48.716;9.124;2022-08-19T14:34:53;20.20;99.90
2489;DHT22;1255;48.716;9.124;2022-08-19T14:37:20;20.20;99.90
2489;DHT22;1255;48.716;9.124;2022-08-19T14:39:48;20.20;99.90
2489;DHT22;1255;48.716;9.124;2022-08-19T14:42:15;20.20;99.90
2489;DHT22;1255;48.716;9.124;2022-08-19T14:44:42;20.30;99.90
2489;DHT22;1255;48.716;9.124;2022-08-19T14:47:09;20.30;99.90
2489;DHT22;1255;48.716;9.124;2022-08-19T14:49:37;20.40;99.90
2489;DHT22;1255;48.716;9.124;2022-08-19T14:52:05;20.50;99.90
2489;DHT22;1255;48.716;9.124;2022-08-19T14:54:32;20.50;99.90
2489;DHT22;1255;48.716;9.124;2022-08-19T14:56:59;20.70;99.90
2489;DHT22;1255;48.716;9.124;2022-08-19T14:59:25;20.80;99.90
2489;DHT22;1255;48.716;9.124;2022-08-19T15:01:52;20.90;99.90
2489;DHT22;1255;48.716;9.124;2022-08-19T15:04:19;20.90;99.90
2489;DHT22;1255;48.716;9.124;2022-08-19T15:06:47;20.80;99.90
2489;DHT22;1255;48.716;9.124;2022-08-19T15:09:16;20.80;99.90
2489;DHT22;1255;48.716;9.124;2022-08-19T15:11:42;20.80;99.90
2489;DHT22;1255;48.716;9.124;2022-08-19T15:14:09;20.80;99.90
2489;DHT22;1255;48.716;9.124;2022-08-19T15:16:36;20.80;99.90
2489;DHT22;1255;48.716;9.124;2022-08-19T15:19:05;20.80;99.90
2489;DHT22;1255;48.716;9.124;2022-08-19T15:21:32;20.70;99.90
2489;DHT22;1255;48.716;9.124;2022-08-19T15:24:00;20.70;99.90
2489;DHT22;1255;48.716;9.124;2022-08-19T15:26:27;20.70;99.90
2489;DHT22;1255;48.716;9.124;2022-08-19T15:28:57;20.70;99.90
2489;DHT22;1255;48.716;9.124;2022-08-19T15:31:25;20.70;99.90
2489;DHT22;1255;48.716;9.124;2022-08-19T15:33:53;20.70;99.90
2489;DHT22;1255;48.716;9.124;2022-08-19T15:36:21;20.80;99.90
2489;DHT22;1255;48.716;9.124;2022-08-19T15:38:48;20.80;99.90
2489;DHT22;1255;48.716;9.124;2022-08-19T15:41:20;20.80;99.90
2489;DHT22;1255;48.716;9.124;2022-08-19T15:43:52;20.90;99.90
2489;DHT22;1255;48.716;9.124;2022-08-19T15:46:20;20.90;99.90
2489;DHT22;1255;48.716;9.124;2022-08-19T15:48:48;21.00;99.90
2489;DHT22;1255;48.716;9.124;2022-08-19T15:51:15;21.10;99.90
2489;DHT22;1255;48.716;9.124;2022-08-19T15:53:42;21.20;99.90
2489;DHT22;1255;48.716;9.124;2022-08-19T15:56:10;21.20;99.90
2489;DHT22;1255;48.716;9.124;2022-08-19T15:58:38;21.30;99.90
2489;DHT22;1255;48.716;9.124;2022-08-19T16:01:23;21.40;99.90
2489;DHT22;1255;48.716;9.124;2022-08-19T16:04:09;21.50;99.90
2489;DHT22;1255;48.716;9.124;2022-08-19T16:06:57;21.60;99.90
2489;DHT22;1255;48.716;9.124;2022-08-19T16:09:26;21.60;99.90
2489;DHT22;1255;48.716;9.124;2022-08-19T16:11:54;21.70;99.90
2489;DHT22;1255;48.716;9.124;2022-08-19T16:14:23;21.80;99.90